Lagoon City, Ontario

Past 24 Hour Conditions

This table is a summary of hourly weather conditions for the past 24 hours. This summary includes the following parameters: temperature, humidity, dew point, wind speed and direction, air pressure, visibility and/or wind chill and humidex.
Date / Time
(EDT)
Conditions Temp (°F) Humidity (%) Dew Point (°F) Wind (mph) Pressure (inches) Vis (mi) Wind Chill
20 April 2014
6:00 N/A 33 86 29 E 5 30.4 N/A *
5:00 N/A 34 79 28 ESE 3 30.4 N/A *
4:00 N/A 33 86 29 ESE 5 30.4 N/A *
3:00 N/A 31 87 28 S 6 30.4 N/A 26
2:00 N/A 29   88 26 SW 6 30.4 N/A 23
1:00 N/A 33 87 29 SSE 2 30.4 N/A *
00:00 N/A 33 85 29 NNE 2 30.4 N/A *
19 April 2014
23:00 N/A 37 80 31 E 2 30.4 N/A *
22:00 N/A 37 74 30 NE 4 30.4 N/A *
21:00 N/A 36 66 26 SSE 2 30.4 N/A *
20:00 N/A 37 68 27 SW 3 30.4 N/A *
19:00 N/A 38 65 28 SW 4 30.4 N/A *
18:00 N/A 35 77 29 SSW 5 30.4 N/A *
17:00 N/A 37 71 29 WSW 12 30.4 N/A *
16:00 N/A 35 78 30 SW 13 30.4 N/A *
15:00 N/A 37 75 30 SW 11 30.4 N/A *
14:00 N/A 38 67 28 WSW 10 30.4 N/A *
13:00 N/A 37 69 27 WSW 9 30.5 N/A *
12:00 N/A 40   58 27 NNW 6 30.4 N/A *
11:00 N/A 39 60 26 NNW 8 30.5 N/A *
10:00 N/A 37 64 26 N 9 30.4 N/A *
9:00 N/A 36 71 28 N 11 30.4 N/A *
8:00 N/A 33 84 29 NNW 10 30.4 N/A *
7:00 N/A 32 89 29 NNW 9 30.4 N/A 24
6:00 N/A 32 91 30 NNW 11 30.4 N/A 23
N/A
Not available
 ↑ 
Highest temperature
 ↓ 
Lowest temperature
*
Value not significant.

If you require additional historical weather information, please visit Climate Data Online.